Bruner, MO (65620)

3:26 PM CST on November 27, 2014 (GMT -0600)
Rogersville | Change Station
CLOSE
Current Station
Personal Weather Station
Location: Rogersville, MO
Elevation: 1453 ft
Nearby Weather Stations

Elev 1453 ft 37.09 °N, 93.10 °W | Updated 2 minutes ago

Clear
Clear
41.1 °F
Feels Like 41 °F
N
2.0
Wind Variable Wind from South
Gusts 6.0 mph

Today
High -- | Low -- °F
--% Chance of Precip.
Yesterday
High -- | Low -- °F
Precip. -- in
7:02 AM 4:56 PM
Waxing Crescent, 33% visible
Pressure 30.46 in
Visibility 10.0 miles
Clouds Clear
Windchill 41 °F
Dew Point 23 °F
Humidity 49%
Rainfall 0.00 in
Snow Depth Not available.
UV 1 out of 12
Pollen .90 out of 12
Air Quality Not available.
Flu Activity Not available.
METAR KSGF 272052Z 20004KT 10SM CLR 06/M07 A3043 RMK AO2 SLP313 T00561067 58016

More Conditions Fewer Conditions

Pressure 30.46 in
Visibility 10.0 miles
Clouds Clear
Windchill 41 °F
Dew Point 23 °F
Humidity 49%
Rainfall 0.00 in
Snow Depth Not available.
UV 1 out of 12
Pollen .90 out of 12
Air Quality Not available.
Flu Activity Not available.
METAR KSGF 272052Z 20004KT 10SM CLR 06/M07 A3043 RMK AO2 SLP313 T00561067 58016

More Conditions Fewer Conditions

10-Day Weather Forecast

Almanac

Astronomy

Nov. 27, 2014 Rise Set
Actual Time
Civil Twilight
Nautical Twilight
Astronomical Twilight
Moon
Length of Visible Light
Length of Day
Tomorrow will be .
, % of the Moon is Illuminated

Today's Extremes

State Highs State Lows

Community

WunderPhotos

Upload Photos

1,774,108 photos uploaded!

WunderBlogs® & News

Nearby

Air Quality

  Air Quality AQ Index Pollutant
Not available.

Snow Depth

Station Depth Elevation

Earthquake Activity

City Distance Mag. Time & Date
Minimum magnitude displayed is 2.5.

Coastal Water Temperatures

Place Temperature

Nearby Weather Stations